Impacts METAR Board
IDs:

KIAH - Houston/Bush Intl, TX, US

Updated at: 0500 UTC 22 Oct 2018
Potential Impact None Slight Moderate High
Time 21/17Z 21/18Z 21/19Z 21/20Z 21/21Z 21/22Z 21/23Z 22/00Z 22/01Z 22/02Z 22/03Z 22/04Z 22/05Z
Temp70 71 72 70 71 71 69 65 63 61 62 60 59
Dewpt49 48 50 49 50 51 52 52 53 55 52 52 52
Altim30.26 30.25 30.22 30.20 30.18 30.17 30.17 30.17 30.18 30.20 30.19 30.20 30.20
VIS10 10 10 10 10 10 10 10 10 10 10 10 10
CIG250 250 250 250 250 250 250 250 250 250 230 230 230
CoverBKNBKNBKNBKNBKNBKNBKNBKNBKNBKNBKNBKNBKN
FltCatVFRVFRVFRVFRVFRVFRVFRVFRVFRVFRVFRVFRVFR
WX--------------------------
WDir505050505030103602020403050
WSpd12 10 7 9 9 10 7 7 5 4 6 6 5
WGst20 -- -- -- -- -- -- -- -- -- -- -- --
Raw hourly METARs
KIAH 211653Z 05012G20KT 10SM BKN250 21/09 A3026 RMK AO2 SLP247 T02110094
KIAH 211753Z 05010KT 10SM BKN250 22/09 A3025 RMK AO2 SLP242 T02170089 10217 20144 58007
KIAH 211853Z 05007KT 10SM BKN250 22/10 A3022 RMK AO2 SLP233 T02220100
KIAH 211953Z 05009KT 10SM BKN250 21/09 A3020 RMK AO2 SLP225 T02110094
KIAH 212053Z 05009KT 10SM BKN250 22/10 A3018 RMK AO2 SLP220 T02170100 56022
KIAH 212153Z 03010KT 10SM BKN250 22/11 A3017 RMK AO2 SLP217 T02170106
KIAH 212253Z 01007KT 10SM FEW060 BKN250 21/11 A3017 RMK AO2 SLP217 T02060111
KIAH 212353Z 36007KT 10SM FEW070 BKN250 18/11 A3017 RMK AO2 SLP217 T01830111 10228 20183 55002
KIAH 220053Z 02005KT 10SM BKN250 17/12 A3018 RMK AO2 SLP220 T01720117
KIAH 220153Z 02004KT 10SM BKN250 16/13 A3020 RMK AO2 SLP225 T01610128
KIAH 220253Z 04006KT 10SM FEW070 BKN230 17/11 A3019 RMK AO2 SLP224 T01670111 50006
KIAH 220353Z 03006KT 10SM FEW070 BKN230 16/11 A3020 RMK AO2 SLP225 T01560111
KIAH 220453Z 05005KT 10SM BKN230 15/11 A3020 RMK AO2 SLP225 T01500111



Page loaded:  05:11 UTC  |   10:11 PM Pacific  |   11:11 PM Mountain  |   12:11 AM Central  |   01:11 AM Eastern

 

ADVISORIES

FORECASTS

FORECASTS

OBSERVATIONS

USER TOOLS

ABOUT US